createdAt,value
2022-08-25T00:00:44.115Z,9.43
2022-08-25T00:03:35.965Z,9.65
2022-08-25T00:06:20.162Z,9.30
2022-08-25T00:09:01.215Z,9.85
2022-08-25T00:11:43.144Z,9.73
2022-08-25T00:14:29.202Z,9.13
2022-08-25T00:17:10.110Z,9.13
2022-08-25T00:19:51.202Z,8.00
2022-08-25T00:22:31.127Z,9.05
2022-08-25T00:25:19.152Z,9.60
2022-08-25T00:27:52.705Z,9.15
2022-08-25T00:30:40.221Z,10.27
2022-08-25T00:33:14.739Z,8.88
2022-08-25T00:36:03.130Z,8.80
2022-08-25T00:38:38.341Z,9.45
2022-08-25T00:41:29.162Z,10.38
2022-08-25T00:44:25.173Z,9.73
2022-08-25T00:47:13.160Z,9.50
2022-08-25T00:49:58.155Z,9.52
2022-08-25T00:52:57.138Z,9.43
2022-08-25T00:55:46.152Z,10.20
2022-08-25T00:58:31.241Z,8.95
2022-08-25T01:01:12.172Z,9.38
2022-08-25T01:03:52.256Z,9.65
2022-08-25T01:06:33.146Z,9.07
2022-08-25T01:09:14.243Z,9.25
2022-08-25T01:11:55.188Z,8.88
2022-08-25T01:14:36.235Z,8.70
2022-08-25T01:17:17.164Z,8.10
2022-08-25T01:19:57.212Z,8.02
2022-08-25T01:22:39.180Z,8.35
2022-08-25T01:25:42.416Z,8.68
2022-08-25T01:28:23.159Z,7.78
2022-08-25T01:31:03.307Z,7.68
2022-08-25T01:33:44.151Z,7.43
2022-08-25T01:36:28.282Z,7.45
2022-08-25T01:39:31.167Z,6.70
2022-08-25T01:42:14.927Z,8.15
2022-08-25T01:45:02.198Z,7.13
2022-08-25T01:47:36.574Z,6.75
2022-08-25T01:50:24.172Z,6.13
2022-08-25T01:53:05.259Z,6.20
2022-08-25T01:56:09.728Z,6.85
2022-08-25T01:58:48.794Z,6.32
2022-08-25T02:01:37.278Z,5.35
2022-08-25T02:04:10.723Z,6.53
2022-08-25T02:06:59.177Z,5.95
2022-08-25T02:09:33.898Z,5.68
2022-08-25T02:12:21.191Z,6.28
2022-08-25T02:15:01.211Z,6.13
2022-08-25T02:17:49.187Z,7.47
2022-08-25T02:20:30.202Z,6.30
2022-08-25T02:23:11.257Z,5.50
2022-08-25T02:25:51.206Z,7.75
2022-08-25T02:28:39.265Z,6.32
2022-08-25T02:31:21.204Z,5.93
2022-08-25T02:34:02.411Z,5.35
2022-08-25T02:36:51.215Z,5.68
2022-08-25T02:39:38.208Z,5.28
2022-08-25T02:42:12.291Z,5.38
2022-08-25T02:45:00.199Z,5.53
2022-08-25T02:47:41.330Z,5.20
2022-08-25T02:50:21.213Z,4.57
2022-08-25T02:53:09.190Z,6.13
2022-08-25T02:55:42.780Z,5.80
2022-08-25T02:58:30.205Z,4.95
2022-08-25T03:01:04.403Z,4.82
2022-08-25T03:03:59.221Z,4.95
2022-08-25T03:06:32.792Z,4.85
2022-08-25T03:09:20.231Z,5.40
2022-08-25T03:12:00.205Z,5.07
2022-08-25T03:14:48.209Z,5.03
2022-08-25T03:17:28.200Z,5.60
2022-08-25T03:20:19.244Z,4.90
2022-08-25T03:23:06.208Z,5.38
2022-08-25T03:26:05.513Z,6.00
2022-08-25T03:28:52.232Z,5.20
2022-08-25T03:31:34.314Z,5.57
2022-08-25T03:34:30.223Z,5.63
2022-08-25T03:37:17.243Z,6.00
2022-08-25T03:39:58.300Z,5.55
2022-08-25T03:42:50.226Z,5.57
2022-08-25T03:45:32.270Z,6.15
2022-08-25T03:48:21.223Z,5.72
2022-08-25T03:50:58.290Z,5.85
2022-08-25T03:53:45.234Z,5.90
2022-08-25T03:56:18.283Z,5.25
2022-08-25T03:59:06.235Z,6.80
2022-08-25T04:01:50.343Z,5.70
2022-08-25T04:04:48.233Z,5.75
2022-08-25T04:10:10.096Z,6.82
2022-08-25T04:12:57.258Z,6.28
2022-08-25T04:15:31.446Z,6.32
2022-08-25T04:18:20.266Z,5.95
2022-08-25T04:20:54.321Z,6.18
2022-08-25T04:23:42.231Z,7.13
2022-08-25T04:26:41.999Z,6.28
2022-08-25T04:29:31.261Z,7.13
2022-08-25T04:32:12.343Z,6.40
2022-08-25T04:35:06.235Z,6.45
2022-08-25T04:37:55.266Z,6.40
2022-08-25T04:40:29.076Z,6.45
2022-08-25T04:43:16.268Z,5.93
2022-08-25T04:45:50.378Z,6.55
2022-08-25T04:48:39.272Z,6.07
2022-08-25T04:51:14.631Z,6.07
2022-08-25T04:54:02.255Z,6.07
2022-08-25T04:56:36.380Z,5.72
2022-08-25T04:59:28.984Z,5.82
2022-08-25T05:02:05.664Z,6.90
2022-08-25T05:04:53.288Z,6.70
2022-08-25T05:07:27.591Z,6.45
2022-08-25T05:10:15.283Z,5.72
2022-08-25T05:12:49.327Z,6.78
2022-08-25T05:15:54.292Z,5.78
2022-08-25T05:18:30.354Z,6.00
2022-08-25T05:21:23.295Z,6.18
2022-08-25T05:23:57.673Z,5.55
2022-08-25T05:26:45.267Z,4.97
2022-08-25T05:29:18.380Z,4.90
2022-08-25T05:32:05.317Z,5.05
2022-08-25T05:34:39.359Z,5.55
2022-08-25T05:37:26.282Z,5.20
2022-08-25T05:39:59.459Z,5.30
2022-08-25T05:42:47.309Z,5.10
2022-08-25T05:45:35.371Z,3.90
2022-08-25T05:48:15.270Z,4.40
2022-08-25T05:51:10.286Z,4.47
2022-08-25T05:53:52.267Z,4.28
2022-08-25T05:56:32.427Z,4.40
2022-08-25T05:59:13.280Z,3.28
2022-08-25T06:02:13.148Z,3.78
2022-08-25T06:07:21.250Z,4.00
2022-08-25T06:10:09.324Z,4.22
2022-08-25T06:12:44.937Z,3.83
2022-08-25T06:15:33.304Z,4.10
2022-08-25T06:18:07.178Z,5.45
2022-08-25T06:20:55.302Z,4.03
2022-08-25T06:23:51.304Z,4.35
2022-08-25T06:26:40.374Z,4.35
2022-08-25T06:29:14.244Z,4.18
2022-08-25T06:32:01.330Z,4.25
2022-08-25T06:34:42.288Z,5.57
2022-08-25T06:37:36.328Z,4.13
2022-08-25T06:40:30.309Z,4.63
2022-08-25T06:43:17.318Z,4.95
2022-08-25T06:45:57.298Z,4.78
2022-08-25T06:48:51.323Z,4.35
2022-08-25T06:51:39.306Z,4.28
2022-08-25T06:54:14.364Z,4.43
2022-08-25T06:57:01.308Z,4.13
2022-08-25T06:59:35.457Z,5.13
2022-08-25T07:02:22.719Z,4.38
2022-08-25T07:04:57.390Z,4.50
2022-08-25T07:07:44.382Z,4.18
2022-08-25T07:10:25.963Z,4.28
2022-08-25T07:13:07.317Z,4.28
2022-08-25T07:15:49.446Z,3.85
2022-08-25T07:18:29.328Z,5.03
2022-08-25T07:21:18.800Z,4.10
2022-08-25T07:23:53.999Z,4.88
2022-08-25T07:26:45.311Z,4.15
2022-08-25T07:29:32.124Z,4.82
2022-08-25T07:32:13.384Z,4.55
2022-08-25T07:35:12.344Z,4.22
2022-08-25T07:38:03.331Z,5.05
2022-08-25T07:40:42.653Z,5.40
2022-08-25T07:43:30.346Z,5.30
2022-08-25T07:46:13.372Z,4.25
2022-08-25T07:48:54.420Z,4.95
2022-08-25T07:51:35.338Z,4.80
2022-08-25T07:54:23.344Z,4.95
2022-08-25T07:57:09.267Z,5.45
2022-08-25T07:59:57.373Z,5.07
2022-08-25T08:02:30.905Z,5.55
2022-08-25T08:05:18.346Z,6.47
2022-08-25T08:07:52.993Z,5.95
2022-08-25T08:11:03.237Z,6.60
2022-08-25T08:13:39.203Z,6.25
2022-08-25T08:16:31.440Z,6.47
2022-08-25T08:19:26.347Z,7.32
2022-08-25T08:22:14.344Z,7.70
2022-08-25T08:24:56.531Z,7.53
2022-08-25T08:27:43.368Z,6.97
2022-08-25T08:30:17.444Z,6.88
2022-08-25T08:33:12.427Z,8.10
2022-08-25T08:35:56.358Z,7.93
2022-08-25T08:38:51.362Z,8.57
2022-08-25T08:42:18.370Z,9.32
2022-08-25T08:44:53.627Z,8.20
2022-08-25T08:47:49.369Z,8.77
2022-08-25T08:50:33.009Z,10.07
2022-08-25T08:53:38.397Z,10.25
2022-08-25T08:56:23.417Z,9.02
2022-08-25T08:59:21.369Z,10.18
2022-08-25T09:02:05.406Z,9.43
2022-08-25T09:04:49.663Z,11.85
2022-08-25T09:07:42.341Z,10.15
2022-08-25T09:10:38.335Z,10.50
2022-08-25T09:13:40.390Z,9.93
2022-08-25T09:16:39.086Z,10.48
2022-08-25T09:19:28.396Z,11.15
2022-08-25T09:22:36.150Z,10.63
2022-08-25T09:28:45.421Z,12.18
2022-08-25T09:31:49.447Z,11.60
2022-08-25T09:34:39.386Z,11.35
2022-08-25T09:37:20.406Z,12.25
2022-08-25T09:40:14.455Z,14.85
2022-08-25T09:43:04.379Z,10.70
2022-08-25T09:45:44.496Z,11.45
2022-08-25T09:48:56.399Z,12.43
2022-08-25T09:51:43.172Z,12.05
2022-08-25T09:54:44.134Z,12.60
2022-08-25T09:57:37.423Z,12.80
2022-08-25T10:00:22.511Z,11.73
2022-08-25T10:03:24.938Z,13.38
2022-08-25T10:06:12.953Z,12.50
2022-08-25T10:09:08.406Z,12.88
2022-08-25T10:11:59.398Z,13.45
2022-08-25T10:14:48.059Z,12.70
2022-08-25T10:17:40.406Z,12.50
2022-08-25T10:20:30.906Z,13.65
2022-08-25T10:23:25.417Z,12.38
2022-08-25T10:26:03.754Z,12.38
2022-08-25T10:29:18.431Z,12.02
2022-08-25T10:32:00.216Z,11.70
2022-08-25T10:34:57.414Z,10.10
2022-08-25T10:38:21.825Z,11.10
2022-08-25T10:41:09.397Z,10.93
2022-08-25T10:44:05.421Z,10.50
2022-08-25T10:46:58.478Z,9.50
2022-08-25T10:49:50.077Z,9.50
2022-08-25T10:52:45.407Z,10.20
2022-08-25T10:55:22.859Z,9.48
2022-08-25T10:58:13.430Z,12.80
2022-08-25T11:00:59.504Z,9.65
2022-08-25T11:03:57.547Z,8.40
2022-08-25T11:06:54.735Z,8.80
2022-08-25T11:09:40.189Z,8.07
2022-08-25T11:12:38.432Z,8.27
2022-08-25T11:15:29.426Z,8.43
2022-08-25T11:18:20.438Z,8.35
2022-08-25T11:21:07.947Z,7.97
2022-08-25T11:26:37.330Z,7.20
2022-08-25T11:29:23.463Z,7.03
2022-08-25T11:32:06.548Z,10.05
2022-08-25T11:34:47.435Z,8.25
2022-08-25T11:37:33.686Z,6.88
2022-08-25T11:40:26.495Z,8.77
2022-08-25T11:43:09.563Z,7.15
2022-08-25T11:46:31.481Z,7.43
2022-08-25T11:49:39.665Z,7.13
2022-08-25T11:52:44.456Z,7.07
2022-08-25T11:55:27.571Z,7.10
2022-08-25T11:58:34.433Z,8.63
2022-08-25T12:01:20.533Z,8.25
2022-08-25T12:04:01.527Z,9.07
2022-08-25T12:06:42.521Z,8.05
2022-08-25T12:09:25.460Z,7.50
2022-08-25T12:12:05.560Z,7.95
2022-08-25T12:14:50.462Z,7.32
2022-08-25T12:17:33.532Z,8.27
2022-08-25T12:20:14.488Z,7.20
2022-08-25T12:23:02.583Z,9.77
2022-08-25T12:25:51.460Z,7.90
2022-08-25T12:29:07.701Z,7.50
2022-08-25T12:32:18.461Z,7.00
2022-08-25T12:35:17.490Z,7.20
2022-08-25T12:38:14.462Z,7.18
2022-08-25T12:40:50.554Z,7.05
2022-08-25T12:43:59.464Z,11.35
2022-08-25T12:46:44.501Z,7.55
2022-08-25T12:49:47.456Z,7.88
2022-08-25T12:52:37.476Z,9.68
2022-08-25T12:55:13.306Z,10.88
2022-08-25T13:01:35.498Z,8.57
2022-08-25T13:04:30.476Z,8.32
2022-08-25T13:07:20.487Z,10.77
2022-08-25T13:10:15.739Z,10.40
2022-08-25T13:13:20.489Z,9.77
2022-08-25T13:16:14.496Z,7.90
2022-08-25T13:19:05.524Z,7.63
2022-08-25T13:21:43.947Z,8.45
2022-08-25T13:24:41.572Z,7.90
2022-08-25T13:27:31.573Z,8.30
2022-08-25T13:30:37.474Z,7.20
2022-08-25T13:33:30.498Z,9.40
2022-08-25T13:36:53.963Z,7.82
2022-08-25T13:39:56.430Z,7.20
2022-08-25T13:42:54.330Z,8.73
2022-08-25T13:45:46.566Z,7.78
2022-08-25T13:49:02.552Z,8.02
2022-08-25T13:54:31.823Z,7.90
2022-08-25T13:57:20.516Z,8.73
2022-08-25T14:00:02.142Z,8.70
2022-08-25T14:02:57.633Z,9.35
2022-08-25T14:05:43.523Z,7.47
2022-08-25T14:08:43.326Z,8.00
2022-08-25T14:11:36.527Z,8.48
2022-08-25T14:14:42.535Z,9.70
2022-08-25T14:17:36.369Z,9.77
2022-08-25T14:20:46.505Z,8.53
2022-08-25T14:23:33.559Z,9.15
2022-08-25T14:26:15.338Z,9.90
2022-08-25T14:28:57.514Z,10.25
2022-08-25T14:31:49.552Z,8.77
2022-08-25T14:34:28.679Z,8.32
2022-08-25T14:37:25.806Z,11.13
2022-08-25T14:39:59.090Z,9.43
2022-08-25T14:42:47.547Z,8.10
2022-08-25T14:45:21.092Z,8.65
2022-08-25T14:48:10.891Z,8.25
2022-08-25T14:50:45.874Z,9.10
2022-08-25T14:53:33.531Z,9.57
2022-08-25T14:56:14.541Z,9.68
2022-08-25T14:58:55.650Z,9.55
2022-08-25T15:01:36.594Z,9.93
2022-08-25T15:04:28.625Z,9.15
2022-08-25T15:07:29.539Z,9.52
2022-08-25T15:10:13.681Z,8.45
2022-08-25T15:12:53.981Z,8.80
2022-08-25T15:15:35.729Z,8.15
2022-08-25T15:18:15.560Z,8.65
2022-08-25T15:20:57.249Z,8.68
2022-08-25T15:23:38.540Z,8.90
2022-08-25T15:26:25.679Z,8.73
2022-08-25T15:29:06.573Z,8.80
2022-08-25T15:31:54.638Z,8.75
2022-08-25T15:34:35.554Z,9.35
2022-08-25T15:37:18.817Z,8.20
2022-08-25T15:39:58.611Z,8.85
2022-08-25T15:42:42.697Z,7.25
2022-08-25T15:45:22.553Z,7.85
2022-08-25T15:48:06.667Z,7.70
2022-08-25T15:50:49.552Z,7.78
2022-08-25T15:53:37.544Z,8.02
2022-08-25T15:56:26.841Z,7.70
2022-08-25T15:59:13.496Z,7.53
2022-08-25T16:01:55.648Z,11.82
2022-08-25T16:04:43.573Z,6.97
2022-08-25T16:07:24.563Z,7.53
2022-08-25T16:10:12.592Z,12.82
2022-08-25T16:12:46.557Z,7.25
2022-08-25T16:15:34.601Z,10.27
2022-08-25T16:18:08.341Z,7.70
2022-08-25T16:20:59.581Z,9.52
2022-08-25T16:23:39.568Z,7.18
2022-08-25T16:26:20.934Z,8.18
2022-08-25T16:29:01.590Z,11.48
2022-08-25T16:31:53.363Z,13.23
2022-08-25T16:34:34.590Z,9.82
2022-08-25T16:37:22.577Z,9.50
2022-08-25T16:40:04.600Z,9.98
2022-08-25T16:42:52.594Z,10.07
2022-08-25T16:45:27.172Z,12.88
2022-08-25T16:48:14.608Z,13.25
2022-08-25T16:50:54.588Z,10.82
2022-08-25T16:53:54.318Z,9.45
2022-08-25T16:56:43.598Z,13.00
2022-08-25T16:59:25.581Z,8.65
2022-08-25T17:02:19.641Z,7.57
2022-08-25T17:05:08.592Z,8.27
2022-08-25T17:07:42.663Z,8.20
2022-08-25T17:10:29.604Z,8.32
2022-08-25T17:13:03.681Z,8.02
2022-08-25T17:15:53.674Z,10.98
2022-08-25T17:18:27.729Z,12.38
2022-08-25T17:21:24.579Z,13.02
2022-08-25T17:24:06.646Z,10.00
2022-08-25T17:27:02.029Z,10.27
2022-08-25T17:29:49.605Z,10.02
2022-08-25T17:32:28.950Z,10.35
2022-08-25T17:35:18.622Z,9.20
2022-08-25T17:37:52.667Z,9.73
2022-08-25T17:40:40.670Z,8.35
2022-08-25T17:43:14.673Z,9.23
2022-08-25T17:46:03.814Z,9.23
2022-08-25T17:48:38.080Z,9.30
2022-08-25T17:51:31.784Z,9.23
2022-08-25T17:54:05.699Z,9.02
2022-08-25T17:56:52.597Z,9.75
2022-08-25T17:59:27.720Z,8.73
2022-08-25T18:02:19.610Z,8.45
2022-08-25T18:04:53.752Z,9.45
2022-08-25T18:07:40.627Z,10.48
2022-08-25T18:10:20.681Z,9.38
2022-08-25T18:13:08.634Z,9.82
2022-08-25T18:15:43.840Z,9.10
2022-08-25T18:18:30.643Z,9.68
2022-08-25T18:21:05.132Z,10.45
2022-08-25T18:23:54.611Z,11.20
2022-08-25T18:26:36.626Z,10.73
2022-08-25T18:29:24.626Z,9.48
2022-08-25T18:32:05.638Z,9.98
2022-08-25T18:35:00.618Z,8.75
2022-08-25T18:38:06.804Z,9.20
2022-08-25T18:40:49.778Z,8.40
2022-08-25T18:43:43.634Z,9.35
2022-08-25T18:49:04.991Z,10.07
2022-08-25T18:51:52.659Z,8.65
2022-08-25T18:54:40.644Z,8.75
2022-08-25T18:57:20.644Z,9.80
2022-08-25T19:00:02.768Z,10.05
2022-08-25T19:02:58.697Z,9.65
2022-08-25T19:05:45.137Z,10.73
2022-08-25T19:08:35.639Z,10.35
2022-08-25T19:11:10.076Z,10.25
2022-08-25T19:13:58.659Z,10.43
2022-08-25T19:16:45.825Z,10.40
2022-08-25T19:19:33.704Z,10.40
2022-08-25T19:22:16.610Z,10.35
2022-08-25T19:25:15.680Z,10.82
2022-08-25T19:27:49.730Z,11.05
2022-08-25T19:30:37.717Z,10.93
2022-08-25T19:33:12.808Z,11.15
2022-08-25T19:36:01.671Z,13.93
2022-08-25T19:38:35.756Z,12.40
2022-08-25T19:41:22.661Z,13.85
2022-08-25T19:43:59.346Z,12.45
2022-08-25T19:46:47.656Z,13.75
2022-08-25T19:49:42.708Z,14.35
2022-08-25T19:52:36.655Z,16.35
2022-08-25T19:55:24.672Z,15.48
2022-08-25T19:57:58.734Z,16.00
2022-08-25T20:00:49.476Z,17.83
2022-08-25T20:03:24.838Z,17.70
2022-08-25T20:06:11.648Z,18.67
2022-08-25T20:08:58.889Z,17.83
2022-08-25T20:11:49.669Z,17.70
2022-08-25T20:14:23.752Z,19.45
2022-08-25T20:17:23.200Z,19.42
2022-08-25T20:19:58.740Z,20.05
2022-08-25T20:22:46.695Z,18.77
2022-08-25T20:25:36.898Z,18.40
2022-08-25T20:28:30.699Z,19.35
2022-08-25T20:31:19.734Z,20.75
2022-08-25T20:33:58.569Z,21.35
2022-08-25T20:36:50.712Z,21.35
2022-08-25T20:39:31.692Z,20.40
2022-08-25T20:42:25.694Z,20.05
2022-08-25T20:45:14.692Z,18.95
2022-08-25T20:47:49.405Z,19.33
2022-08-25T20:50:35.685Z,19.60
2022-08-25T20:53:15.687Z,18.33
2022-08-25T20:56:09.685Z,18.63
2022-08-25T20:58:56.707Z,18.48
2022-08-25T21:01:44.787Z,18.23
2022-08-25T21:04:21.338Z,17.80
2022-08-25T21:07:08.726Z,18.38
2022-08-25T21:09:49.711Z,18.52
2022-08-25T21:12:36.701Z,17.80
2022-08-25T21:15:11.070Z,18.25
2022-08-25T21:17:57.706Z,17.77
2022-08-25T21:20:31.691Z,17.38
2022-08-25T21:23:19.706Z,18.63
2022-08-25T21:25:59.717Z,19.35
2022-08-25T21:28:40.762Z,19.08
2022-08-25T21:31:28.727Z,18.52
2022-08-25T21:34:09.790Z,20.52
2022-08-25T21:36:50.726Z,18.77
2022-08-25T21:39:33.183Z,19.08
2022-08-25T21:42:13.803Z,17.77
2022-08-25T21:44:54.830Z,17.35
2022-08-25T21:47:34.756Z,17.58
2022-08-25T21:50:17.829Z,16.83
2022-08-25T21:52:57.723Z,16.05
2022-08-25T21:55:39.240Z,19.58
2022-08-25T21:58:21.722Z,16.45
2022-08-25T22:01:02.848Z,16.25
2022-08-25T22:03:43.718Z,18.52
2022-08-25T22:06:27.891Z,18.00
2022-08-25T22:09:10.744Z,15.90
2022-08-25T22:11:51.894Z,17.05
2022-08-25T22:14:34.910Z,16.63
2022-08-25T22:17:16.726Z,16.75
2022-08-25T22:19:56.753Z,16.30
2022-08-25T22:22:37.795Z,17.13
2022-08-25T22:25:19.779Z,16.17
2022-08-25T22:28:00.803Z,17.80
2022-08-25T22:30:42.822Z,17.17
2022-08-25T22:33:24.124Z,16.52
2022-08-25T22:36:04.749Z,17.77
2022-08-25T22:38:45.876Z,16.60
2022-08-25T22:41:26.746Z,18.90
2022-08-25T22:44:08.822Z,17.05
2022-08-25T22:46:48.780Z,16.40
2022-08-25T22:49:28.806Z,18.42
2022-08-25T22:52:12.693Z,17.75
2022-08-25T22:54:53.820Z,17.08
2022-08-25T22:57:34.751Z,16.30
2022-08-25T23:00:17.920Z,16.23
2022-08-25T23:02:59.796Z,16.45
2022-08-25T23:05:47.764Z,15.93
2022-08-25T23:08:31.060Z,16.05
2022-08-25T23:11:29.071Z,16.27
2022-08-25T23:14:05.613Z,16.40
2022-08-25T23:16:54.821Z,16.77
2022-08-25T23:19:35.747Z,16.45
2022-08-25T23:22:17.604Z,17.15
2022-08-25T23:24:58.778Z,15.35
2022-08-25T23:27:39.814Z,15.32
2022-08-25T23:30:21.442Z,18.08
2022-08-25T23:33:08.914Z,14.32
2022-08-25T23:35:43.257Z,15.80
2022-08-25T23:38:30.784Z,16.95
2022-08-25T23:41:08.681Z,15.45
2022-08-25T23:43:56.802Z,16.33
2022-08-25T23:46:30.396Z,14.32
2022-08-25T23:49:19.792Z,15.73
2022-08-25T23:51:56.544Z,15.38
2022-08-25T23:54:42.782Z,16.58
2022-08-25T23:57:17.002Z,15.82
